sensor_id;sensor_type;location;lat;lon;timestamp;pressure;altitude;pressure_sealevel;temperature;humidity
50310;BME280;36207;51.850;21.698;2022-10-16T00:01:11;100092.32;;;13.49;71.86
50310;BME280;36207;51.850;21.698;2022-10-16T00:03:40;100092.13;;;13.43;72.23
50310;BME280;36207;51.850;21.698;2022-10-16T00:06:07;100096.18;;;13.39;72.24
50310;BME280;36207;51.850;21.698;2022-10-16T00:08:34;100098.58;;;13.35;72.36
50310;BME280;36207;51.850;21.698;2022-10-16T00:11:06;100101.14;;;13.30;72.70
50310;BME280;36207;51.850;21.698;2022-10-16T00:13:35;100101.05;;;13.28;72.44
50310;BME280;36207;51.850;21.698;2022-10-16T00:16:02;100107.06;;;13.25;72.90
50310;BME280;36207;51.850;21.698;2022-10-16T00:18:29;100108.11;;;13.24;72.43
50310;BME280;36207;51.850;21.698;2022-10-16T00:21:02;100109.11;;;13.23;72.58
50310;BME280;36207;51.850;21.698;2022-10-16T00:23:28;100103.88;;;13.19;72.73
50310;BME280;36207;51.850;21.698;2022-10-16T00:25:56;100105.46;;;13.15;72.93
50310;BME280;36207;51.850;21.698;2022-10-16T00:28:23;100111.45;;;13.15;73.26
50310;BME280;36207;51.850;21.698;2022-10-16T00:30:49;100107.13;;;13.13;73.27
50310;BME280;36207;51.850;21.698;2022-10-16T00:33:16;100110.60;;;13.10;73.39
50310;BME280;36207;51.850;21.698;2022-10-16T00:35:42;100116.11;;;13.07;74.23
50310;BME280;36207;51.850;21.698;2022-10-16T00:38:08;100118.95;;;13.06;74.25
50310;BME280;36207;51.850;21.698;2022-10-16T00:40:34;100120.14;;;13.05;74.27
50310;BME280;36207;51.850;21.698;2022-10-16T00:43:00;100121.77;;;13.04;74.76
50310;BME280;36207;51.850;21.698;2022-10-16T00:45:26;100113.13;;;13.03;74.36
50310;BME280;36207;51.850;21.698;2022-10-16T00:47:54;100108.11;;;13.04;74.21
50310;BME280;36207;51.850;21.698;2022-10-16T00:50:28;100102.84;;;13.05;74.55
50310;BME280;36207;51.850;21.698;2022-10-16T00:52:56;100099.75;;;13.05;74.69
50310;BME280;36207;51.850;21.698;2022-10-16T00:55:23;100101.41;;;13.06;74.40
50310;BME280;36207;51.850;21.698;2022-10-16T00:57:51;100098.11;;;13.06;74.45
50310;BME280;36207;51.850;21.698;2022-10-16T01:00:21;100099.69;;;13.03;74.38
50310;BME280;36207;51.850;21.698;2022-10-16T01:02:56;100097.34;;;13.03;74.32
50310;BME280;36207;51.850;21.698;2022-10-16T01:05:25;100097.38;;;13.06;74.26
50310;BME280;36207;51.850;21.698;2022-10-16T01:08:06;100102.05;;;13.07;74.63
50310;BME280;36207;51.850;21.698;2022-10-16T01:13:09;100118.18;;;13.04;74.33
50310;BME280;36207;51.850;21.698;2022-10-16T01:15:56;100116.81;;;13.03;74.47
50310;BME280;36207;51.850;21.698;2022-10-16T01:18:39;100121.49;;;13.06;74.34
50310;BME280;36207;51.850;21.698;2022-10-16T01:21:10;100117.64;;;13.08;74.72
50310;BME280;36207;51.850;21.698;2022-10-16T01:24:08;100123.03;;;13.07;74.67
50310;BME280;36207;51.850;21.698;2022-10-16T01:30:00;100123.69;;;13.07;74.63
50310;BME280;36207;51.850;21.698;2022-10-16T01:33:10;100112.77;;;13.08;74.46
50310;BME280;36207;51.850;21.698;2022-10-16T01:35:32;100113.20;;;13.11;74.50
50310;BME280;36207;51.850;21.698;2022-10-16T01:38:08;100113.09;;;13.10;74.44
50310;BME280;36207;51.850;21.698;2022-10-16T01:40:39;100109.15;;;13.09;74.68
50310;BME280;36207;51.850;21.698;2022-10-16T01:43:12;100107.83;;;13.09;74.45
50310;BME280;36207;51.850;21.698;2022-10-16T01:45:40;100107.54;;;13.13;74.45
50310;BME280;36207;51.850;21.698;2022-10-16T01:48:09;100108.02;;;13.13;74.44
50310;BME280;36207;51.850;21.698;2022-10-16T01:50:39;100111.50;;;13.13;74.54
50310;BME280;36207;51.850;21.698;2022-10-16T01:53:12;100110.86;;;13.11;74.58
50310;BME280;36207;51.850;21.698;2022-10-16T01:55:42;100108.13;;;13.11;74.61
50310;BME280;36207;51.850;21.698;2022-10-16T01:58:13;100112.33;;;13.13;74.38
50310;BME280;36207;51.850;21.698;2022-10-16T02:00:43;100126.06;;;13.18;74.52
50310;BME280;36207;51.850;21.698;2022-10-16T02:03:11;100137.80;;;13.20;74.28
50310;BME280;36207;51.850;21.698;2022-10-16T02:05:53;100139.86;;;13.21;74.24
50310;BME280;36207;51.850;21.698;2022-10-16T02:08:22;100141.09;;;13.21;74.27
50310;BME280;36207;51.850;21.698;2022-10-16T02:10:50;100142.60;;;13.23;74.28
50310;BME280;36207;51.850;21.698;2022-10-16T02:13:26;100142.77;;;13.23;74.15
50310;BME280;36207;51.850;21.698;2022-10-16T02:15:55;100139.91;;;13.22;74.20
50310;BME280;36207;51.850;21.698;2022-10-16T02:18:21;100135.80;;;13.20;74.16
50310;BME280;36207;51.850;21.698;2022-10-16T02:21:32;100135.67;;;13.19;73.90
50310;BME280;36207;51.850;21.698;2022-10-16T02:24:03;100127.65;;;13.21;74.09
50310;BME280;36207;51.850;21.698;2022-10-16T02:29:47;100127.43;;;13.27;74.09
50310;BME280;36207;51.850;21.698;2022-10-16T02:32:20;100124.73;;;13.29;73.92
50310;BME280;36207;51.850;21.698;2022-10-16T02:34:49;100122.80;;;13.26;73.83
50310;BME280;36207;51.850;21.698;2022-10-16T02:37:17;100129.70;;;13.25;73.98
50310;BME280;36207;51.850;21.698;2022-10-16T02:39:44;100133.96;;;13.25;73.94
50310;BME280;36207;51.850;21.698;2022-10-16T02:42:14;100144.08;;;13.25;73.91
50310;BME280;36207;51.850;21.698;2022-10-16T02:44:41;100137.95;;;13.26;73.93
50310;BME280;36207;51.850;21.698;2022-10-16T02:47:07;100138.71;;;13.25;73.96
50310;BME280;36207;51.850;21.698;2022-10-16T02:49:33;100140.35;;;13.25;73.97
50310;BME280;36207;51.850;21.698;2022-10-16T02:51:59;100134.38;;;13.26;73.83
50310;BME280;36207;51.850;21.698;2022-10-16T02:54:25;100132.64;;;13.27;73.94
50310;BME280;36207;51.850;21.698;2022-10-16T02:56:52;100135.23;;;13.27;73.97
50310;BME280;36207;51.850;21.698;2022-10-16T02:59:18;100135.79;;;13.27;73.90
50310;BME280;36207;51.850;21.698;2022-10-16T03:01:44;100140.11;;;13.27;73.99
50310;BME280;36207;51.850;21.698;2022-10-16T03:04:10;100137.23;;;13.27;74.06
50310;BME280;36207;51.850;21.698;2022-10-16T03:06:36;100135.27;;;13.26;74.33
50310;BME280;36207;51.850;21.698;2022-10-16T03:09:03;100136.59;;;13.25;74.50
50310;BME280;36207;51.850;21.698;2022-10-16T03:11:29;100138.14;;;13.23;74.46
50310;BME280;36207;51.850;21.698;2022-10-16T03:13:55;100139.84;;;13.24;74.27
50310;BME280;36207;51.850;21.698;2022-10-16T03:16:22;100138.23;;;13.26;74.33
50310;BME280;36207;51.850;21.698;2022-10-16T03:18:48;100139.64;;;13.24;74.31
50310;BME280;36207;51.850;21.698;2022-10-16T03:21:15;100142.94;;;13.24;74.37
50310;BME280;36207;51.850;21.698;2022-10-16T03:23:42;100146.13;;;13.25;74.55
50310;BME280;36207;51.850;21.698;2022-10-16T03:26:08;100144.20;;;13.22;74.35
50310;BME280;36207;51.850;21.698;2022-10-16T03:28:34;100146.52;;;13.23;74.47
50310;BME280;36207;51.850;21.698;2022-10-16T03:31:00;100150.09;;;13.22;74.54
50310;BME280;36207;51.850;21.698;2022-10-16T03:33:26;100153.30;;;13.20;74.60
50310;BME280;36207;51.850;21.698;2022-10-16T03:35:54;100157.38;;;13.23;74.43
50310;BME280;36207;51.850;21.698;2022-10-16T03:38:21;100157.09;;;13.26;74.53
50310;BME280;36207;51.850;21.698;2022-10-16T03:40:48;100160.95;;;13.28;74.33
50310;BME280;36207;51.850;21.698;2022-10-16T03:43:14;100160.67;;;13.30;74.56
50310;BME280;36207;51.850;21.698;2022-10-16T03:45:40;100162.25;;;13.30;74.60
50310;BME280;36207;51.850;21.698;2022-10-16T03:48:06;100167.75;;;13.32;74.84
50310;BME280;36207;51.850;21.698;2022-10-16T03:50:32;100171.06;;;13.33;74.98
50310;BME280;36207;51.850;21.698;2022-10-16T03:52:58;100169.34;;;13.32;75.18
50310;BME280;36207;51.850;21.698;2022-10-16T03:55:24;100174.14;;;13.31;75.07
50310;BME280;36207;51.850;21.698;2022-10-16T03:57:50;100179.77;;;13.29;75.42
50310;BME280;36207;51.850;21.698;2022-10-16T04:00:16;100182.48;;;13.31;75.20
50310;BME280;36207;51.850;21.698;2022-10-16T04:02:42;100180.08;;;13.35;75.27
50310;BME280;36207;51.850;21.698;2022-10-16T04:05:09;100181.05;;;13.38;75.47
50310;BME280;36207;51.850;21.698;2022-10-16T04:07:35;100182.02;;;13.41;75.26
50310;BME280;36207;51.850;21.698;2022-10-16T04:10:02;100179.83;;;13.41;75.10
50310;BME280;36207;51.850;21.698;2022-10-16T04:12:28;100177.94;;;13.40;74.91
50310;BME280;36207;51.850;21.698;2022-10-16T04:14:54;100176.72;;;13.43;74.90
50310;BME280;36207;51.850;21.698;2022-10-16T04:17:21;100177.90;;;13.47;74.96
50310;BME280;36207;51.850;21.698;2022-10-16T04:19:47;100176.52;;;13.48;74.81
50310;BME280;36207;51.850;21.698;2022-10-16T04:22:13;100181.98;;;13.47;75.02
50310;BME280;36207;51.850;21.698;2022-10-16T04:24:40;100181.66;;;13.42;75.08
50310;BME280;36207;51.850;21.698;2022-10-16T04:27:06;100179.44;;;13.34;75.40
50310;BME280;36207;51.850;21.698;2022-10-16T04:29:32;100182.04;;;13.28;75.28
50310;BME280;36207;51.850;21.698;2022-10-16T04:31:58;100186.50;;;13.24;75.35
50310;BME280;36207;51.850;21.698;2022-10-16T04:34:24;100186.80;;;13.24;75.12
50310;BME280;36207;51.850;21.698;2022-10-16T04:36:50;100190.35;;;13.27;75.31
50310;BME280;36207;51.850;21.698;2022-10-16T04:39:17;100191.95;;;13.26;75.23
50310;BME280;36207;51.850;21.698;2022-10-16T04:41:43;100189.70;;;13.21;75.14
50310;BME280;36207;51.850;21.698;2022-10-16T04:44:09;100192.78;;;13.16;75.34
50310;BME280;36207;51.850;21.698;2022-10-16T04:46:36;100189.04;;;13.13;75.17
50310;BME280;36207;51.850;21.698;2022-10-16T04:49:02;100192.12;;;13.10;75.19
50310;BME280;36207;51.850;21.698;2022-10-16T04:51:28;100190.07;;;13.08;75.26
50310;BME280;36207;51.850;21.698;2022-10-16T04:53:54;100200.58;;;13.07;75.17
50310;BME280;36207;51.850;21.698;2022-10-16T04:56:21;100204.48;;;13.07;75.28
50310;BME280;36207;51.850;21.698;2022-10-16T04:58:47;100212.70;;;13.04;75.27
50310;BME280;36207;51.850;21.698;2022-10-16T05:01:13;100214.69;;;13.04;75.42
50310;BME280;36207;51.850;21.698;2022-10-16T05:03:40;100210.52;;;13.04;75.65
50310;BME280;36207;51.850;21.698;2022-10-16T05:06:06;100215.45;;;13.06;75.79
50310;BME280;36207;51.850;21.698;2022-10-16T05:08:32;100210.50;;;13.06;75.31
50310;BME280;36207;51.850;21.698;2022-10-16T05:10:58;100209.06;;;13.03;75.47
50310;BME280;36207;51.850;21.698;2022-10-16T05:13:25;100210.02;;;13.00;75.35
50310;BME280;36207;51.850;21.698;2022-10-16T05:15:52;100214.23;;;12.96;75.43
50310;BME280;36207;51.850;21.698;2022-10-16T05:18:18;100219.81;;;12.94;75.62
50310;BME280;36207;51.850;21.698;2022-10-16T05:20:44;100225.88;;;12.96;75.65
50310;BME280;36207;51.850;21.698;2022-10-16T05:23:10;100223.26;;;12.95;75.54
50310;BME280;36207;51.850;21.698;2022-10-16T05:25:37;100229.88;;;12.94;75.10
50310;BME280;36207;51.850;21.698;2022-10-16T05:28:03;100236.05;;;12.96;75.41
50310;BME280;36207;51.850;21.698;2022-10-16T05:30:30;100246.44;;;12.95;75.49
50310;BME280;36207;51.850;21.698;2022-10-16T05:32:56;100246.63;;;12.97;75.39
50310;BME280;36207;51.850;21.698;2022-10-16T05:35:23;100249.11;;;12.96;75.63
50310;BME280;36207;51.850;21.698;2022-10-16T05:37:49;100248.84;;;12.89;75.64
50310;BME280;36207;51.850;21.698;2022-10-16T05:40:15;100250.13;;;12.87;75.63
50310;BME280;36207;51.850;21.698;2022-10-16T05:42:42;100248.48;;;12.83;75.91
50310;BME280;36207;51.850;21.698;2022-10-16T05:45:10;100244.80;;;12.80;75.82
50310;BME280;36207;51.850;21.698;2022-10-16T05:47:37;100247.45;;;12.83;75.60
50310;BME280;36207;51.850;21.698;2022-10-16T05:50:04;100249.85;;;12.84;75.42
50310;BME280;36207;51.850;21.698;2022-10-16T05:52:30;100254.55;;;12.85;75.82
50310;BME280;36207;51.850;21.698;2022-10-16T05:54:56;100257.11;;;12.84;75.67
50310;BME280;36207;51.850;21.698;2022-10-16T05:57:22;100254.45;;;12.86;75.82
50310;BME280;36207;51.850;21.698;2022-10-16T05:59:48;100258.80;;;12.88;75.42
50310;BME280;36207;51.850;21.698;2022-10-16T06:02:15;100265.89;;;12.91;75.61
50310;BME280;36207;51.850;21.698;2022-10-16T06:04:41;100266.71;;;12.98;75.65
50310;BME280;36207;51.850;21.698;2022-10-16T06:07:07;100264.61;;;13.09;75.65
50310;BME280;36207;51.850;21.698;2022-10-16T06:09:34;100267.58;;;13.17;75.51
50310;BME280;36207;51.850;21.698;2022-10-16T06:12:00;100269.41;;;13.28;75.72
50310;BME280;36207;51.850;21.698;2022-10-16T06:14:26;100269.42;;;13.44;75.64
50310;BME280;36207;51.850;21.698;2022-10-16T06:16:52;100272.61;;;13.62;75.40
50310;BME280;36207;51.850;21.698;2022-10-16T06:19:18;100275.12;;;13.77;75.11
50310;BME280;36207;51.850;21.698;2022-10-16T06:21:44;100272.34;;;13.91;74.84
50310;BME280;36207;51.850;21.698;2022-10-16T06:24:11;100278.91;;;14.02;74.41
50310;BME280;36207;51.850;21.698;2022-10-16T06:26:37;100284.55;;;14.06;74.36
50310;BME280;36207;51.850;21.698;2022-10-16T06:29:04;100288.52;;;14.24;74.94
50310;BME280;36207;51.850;21.698;2022-10-16T06:31:30;100290.90;;;14.44;74.14
50310;BME280;36207;51.850;21.698;2022-10-16T06:34:00;100289.81;;;14.53;72.99
50310;BME280;36207;51.850;21.698;2022-10-16T06:36:26;100288.02;;;14.57;73.21
50310;BME280;36207;51.850;21.698;2022-10-16T06:38:53;100283.77;;;14.66;73.04
50310;BME280;36207;51.850;21.698;2022-10-16T06:41:23;100282.63;;;14.71;72.77
50310;BME280;36207;51.850;21.698;2022-10-16T06:43:49;100286.21;;;14.68;72.48
50310;BME280;36207;51.850;21.698;2022-10-16T06:46:19;100289.11;;;14.68;71.99
50310;BME280;36207;51.850;21.698;2022-10-16T06:48:45;100292.43;;;14.80;72.78
50310;BME280;36207;51.850;21.698;2022-10-16T06:51:14;100297.66;;;15.04;72.64
50310;BME280;36207;51.850;21.698;2022-10-16T06:53:44;100305.90;;;15.31;73.03
50310;BME280;36207;51.850;21.698;2022-10-16T06:56:16;100310.73;;;15.58;71.48
50310;BME280;36207;51.850;21.698;2022-10-16T06:58:44;100307.88;;;15.62;70.03
50310;BME280;36207;51.850;21.698;2022-10-16T07:01:11;100311.75;;;15.57;69.49
50310;BME280;36207;51.850;21.698;2022-10-16T07:03:39;100304.66;;;15.48;69.57
50310;BME280;36207;51.850;21.698;2022-10-16T07:06:06;100297.90;;;15.44;69.72
50310;BME280;36207;51.850;21.698;2022-10-16T07:08:34;100298.00;;;15.57;70.09
50310;BME280;36207;51.850;21.698;2022-10-16T07:11:01;100305.30;;;15.74;68.82
50310;BME280;36207;51.850;21.698;2022-10-16T07:13:28;100309.16;;;15.91;69.47
50310;BME280;36207;51.850;21.698;2022-10-16T07:15:54;100304.80;;;16.08;68.98
50310;BME280;36207;51.850;21.698;2022-10-16T07:18:21;100298.34;;;16.15;68.12
50310;BME280;36207;51.850;21.698;2022-10-16T07:20:52;100300.98;;;16.28;68.30
50310;BME280;36207;51.850;21.698;2022-10-16T07:23:18;100315.59;;;16.45;68.54
50310;BME280;36207;51.850;21.698;2022-10-16T07:25:44;100318.57;;;16.65;68.17
50310;BME280;36207;51.850;21.698;2022-10-16T07:28:11;100318.94;;;16.90;67.87
50310;BME280;36207;51.850;21.698;2022-10-16T07:30:37;100319.15;;;17.08;67.26
50310;BME280;36207;51.850;21.698;2022-10-16T07:33:03;100322.35;;;17.19;67.11
50310;BME280;36207;51.850;21.698;2022-10-16T07:35:29;100322.41;;;17.30;66.82
50310;BME280;36207;51.850;21.698;2022-10-16T07:37:56;100321.62;;;17.38;65.34
50310;BME280;36207;51.850;21.698;2022-10-16T07:40:22;100321.83;;;17.45;65.55
50310;BME280;36207;51.850;21.698;2022-10-16T07:42:48;100317.31;;;17.49;65.53
50310;BME280;36207;51.850;21.698;2022-10-16T07:45:14;100321.11;;;17.54;64.56
50310;BME280;36207;51.850;21.698;2022-10-16T07:47:40;100328.66;;;17.55;65.40
50310;BME280;36207;51.850;21.698;2022-10-16T07:50:07;100336.41;;;17.64;65.17
50310;BME280;36207;51.850;21.698;2022-10-16T07:52:33;100340.73;;;17.71;64.81
50310;BME280;36207;51.850;21.698;2022-10-16T07:54:59;100347.77;;;17.80;65.01
50310;BME280;36207;51.850;21.698;2022-10-16T07:57:25;100356.88;;;18.02;64.40
50310;BME280;36207;51.850;21.698;2022-10-16T07:59:51;100364.15;;;18.12;63.27
50310;BME280;36207;51.850;21.698;2022-10-16T08:02:17;100361.74;;;18.32;63.92
50310;BME280;36207;51.850;21.698;2022-10-16T08:04:46;100357.40;;;18.52;63.07
50310;BME280;36207;51.850;21.698;2022-10-16T08:07:12;100352.39;;;18.75;64.49
50310;BME280;36207;51.850;21.698;2022-10-16T08:09:39;100349.66;;;18.97;63.18
50310;BME280;36207;51.850;21.698;2022-10-16T08:12:05;100344.42;;;19.13;64.00
50310;BME280;36207;51.850;21.698;2022-10-16T08:14:31;100341.55;;;19.30;63.07
50310;BME280;36207;51.850;21.698;2022-10-16T08:16:57;100342.00;;;19.45;62.93
50310;BME280;36207;51.850;21.698;2022-10-16T08:19:24;100344.55;;;19.63;63.69
50310;BME280;36207;51.850;21.698;2022-10-16T08:21:50;100347.92;;;19.79;61.50
50310;BME280;36207;51.850;21.698;2022-10-16T08:24:16;100351.12;;;19.77;60.84
50310;BME280;36207;51.850;21.698;2022-10-16T08:26:42;100350.48;;;19.56;59.41
50310;BME280;36207;51.850;21.698;2022-10-16T08:29:08;100351.16;;;19.18;60.36
50310;BME280;36207;51.850;21.698;2022-10-16T08:31:34;100354.57;;;19.01;60.48
50310;BME280;36207;51.850;21.698;2022-10-16T08:34:01;100352.55;;;18.89;61.20
50310;BME280;36207;51.850;21.698;2022-10-16T08:36:28;100349.23;;;18.71;60.90
50310;BME280;36207;51.850;21.698;2022-10-16T08:38:54;100355.05;;;18.51;60.65
50310;BME280;36207;51.850;21.698;2022-10-16T08:41:58;100350.15;;;18.43;60.95
50310;BME280;36207;51.850;21.698;2022-10-16T08:47:02;100348.89;;;18.63;60.86
50310;BME280;36207;51.850;21.698;2022-10-16T08:49:31;100348.70;;;18.69;60.40
50310;BME280;36207;51.850;21.698;2022-10-16T08:51:58;100345.27;;;18.67;59.53
50310;BME280;36207;51.850;21.698;2022-10-16T08:54:37;100337.16;;;18.62;60.27
50310;BME280;36207;51.850;21.698;2022-10-16T08:57:11;100333.43;;;18.73;60.39
50310;BME280;36207;51.850;21.698;2022-10-16T08:59:39;100343.14;;;18.85;59.85
50310;BME280;36207;51.850;21.698;2022-10-16T09:02:32;100349.37;;;18.91;59.38
50310;BME280;36207;51.850;21.698;2022-10-16T09:11:07;100352.53;;;18.79;58.93
50310;BME280;36207;51.850;21.698;2022-10-16T09:14:03;100352.68;;;18.81;59.28
50310;BME280;36207;51.850;21.698;2022-10-16T09:16:36;100346.77;;;18.95;59.82
50310;BME280;36207;51.850;21.698;2022-10-16T09:19:25;100352.15;;;19.09;59.05
50310;BME280;36207;51.850;21.698;2022-10-16T09:21:56;100346.80;;;19.09;58.96
50310;BME280;36207;51.850;21.698;2022-10-16T09:24:34;100345.39;;;19.11;59.37
50310;BME280;36207;51.850;21.698;2022-10-16T09:27:01;100348.20;;;19.18;59.48
50310;BME280;36207;51.850;21.698;2022-10-16T09:29:27;100348.83;;;19.22;58.80
50310;BME280;36207;51.850;21.698;2022-10-16T09:31:55;100351.67;;;19.20;59.17
50310;BME280;36207;51.850;21.698;2022-10-16T09:34:36;100351.98;;;19.16;58.62
50310;BME280;36207;51.850;21.698;2022-10-16T09:37:14;100349.11;;;18.99;58.55
50310;BME280;36207;51.850;21.698;2022-10-16T09:39:53;100354.93;;;18.92;58.85
50310;BME280;36207;51.850;21.698;2022-10-16T09:42:26;100358.40;;;18.78;58.95
50310;BME280;36207;51.850;21.698;2022-10-16T09:44:54;100359.04;;;18.68;59.38
50310;BME280;36207;51.850;21.698;2022-10-16T09:47:23;100363.59;;;18.63;59.91
50310;BME280;36207;51.850;21.698;2022-10-16T09:49:59;100368.11;;;18.62;59.94
50310;BME280;36207;51.850;21.698;2022-10-16T09:52:29;100374.20;;;18.61;59.87
50310;BME280;36207;51.850;21.698;2022-10-16T09:57:24;100372.23;;;18.64;60.18
50310;BME280;36207;51.850;21.698;2022-10-16T09:59:52;100373.39;;;18.66;60.22
50310;BME280;36207;51.850;21.698;2022-10-16T10:02:28;100375.11;;;18.63;60.15
50310;BME280;36207;51.850;21.698;2022-10-16T10:04:55;100373.80;;;18.64;60.18
50310;BME280;36207;51.850;21.698;2022-10-16T10:07:39;100367.50;;;18.62;59.62
50310;BME280;36207;51.850;21.698;2022-10-16T10:10:28;100364.14;;;18.57;59.84
50310;BME280;36207;51.850;21.698;2022-10-16T10:12:55;100363.95;;;18.54;60.18
50310;BME280;36207;51.850;21.698;2022-10-16T10:15:23;100357.70;;;18.56;60.49
50310;BME280;36207;51.850;21.698;2022-10-16T10:17:54;100357.41;;;18.59;60.39
50310;BME280;36207;51.850;21.698;2022-10-16T10:20:35;100354.33;;;18.59;60.05
50310;BME280;36207;51.850;21.698;2022-10-16T10:23:22;100352.80;;;18.54;59.83
50310;BME280;36207;51.850;21.698;2022-10-16T10:31:51;100337.48;;;18.80;59.94
50310;BME280;36207;51.850;21.698;2022-10-16T10:37:21;100339.20;;;19.02;59.34
50310;BME280;36207;51.850;21.698;2022-10-16T10:40:05;100338.67;;;19.01;58.77
50310;BME280;36207;51.850;21.698;2022-10-16T10:42:51;100337.25;;;19.05;59.48
50310;BME280;36207;51.850;21.698;2022-10-16T10:45:42;100344.38;;;19.14;59.69
50310;BME280;36207;51.850;21.698;2022-10-16T10:51:04;100346.70;;;19.29;59.18
50310;BME280;36207;51.850;21.698;2022-10-16T10:54:28;100349.23;;;19.36;58.89
50310;BME280;36207;51.850;21.698;2022-10-16T10:57:02;100353.23;;;19.36;58.17
50310;BME280;36207;51.850;21.698;2022-10-16T10:59:41;100345.88;;;19.31;57.81
50310;BME280;36207;51.850;21.698;2022-10-16T11:02:15;100339.61;;;19.31;58.52
50310;BME280;36207;51.850;21.698;2022-10-16T11:07:33;100335.67;;;19.27;57.52
50310;BME280;36207;51.850;21.698;2022-10-16T11:10:12;100326.30;;;19.30;57.77
50310;BME280;36207;51.850;21.698;2022-10-16T11:12:44;100322.13;;;19.31;57.69
50310;BME280;36207;51.850;21.698;2022-10-16T11:15:19;100322.09;;;19.30;57.30
50310;BME280;36207;51.850;21.698;2022-10-16T11:17:54;100321.30;;;19.28;57.66
50310;BME280;36207;51.850;21.698;2022-10-16T11:20:26;100316.80;;;19.21;57.60
50310;BME280;36207;51.850;21.698;2022-10-16T11:23:08;100310.71;;;19.15;57.96
50310;BME280;36207;51.850;21.698;2022-10-16T11:25:39;100308.76;;;19.12;58.18
50310;BME280;36207;51.850;21.698;2022-10-16T11:28:12;100309.84;;;19.12;58.19
50310;BME280;36207;51.850;21.698;2022-10-16T11:31:03;100317.98;;;19.14;58.18
50310;BME280;36207;51.850;21.698;2022-10-16T11:36:56;100313.86;;;19.10;58.55
50310;BME280;36207;51.850;21.698;2022-10-16T11:39:27;100316.99;;;19.10;58.29
50310;BME280;36207;51.850;21.698;2022-10-16T11:47:24;100309.89;;;19.17;58.65
50310;BME280;36207;51.850;21.698;2022-10-16T11:50:02;100311.73;;;19.25;58.85
50310;BME280;36207;51.850;21.698;2022-10-16T11:52:38;100311.80;;;19.25;58.62
50310;BME280;36207;51.850;21.698;2022-10-16T11:55:34;100306.73;;;19.24;59.03
50310;BME280;36207;51.850;21.698;2022-10-16T11:58:27;100311.78;;;19.29;59.08
50310;BME280;36207;51.850;21.698;2022-10-16T12:03:33;100322.35;;;19.36;59.04
50310;BME280;36207;51.850;21.698;2022-10-16T12:09:26;100326.65;;;19.50;59.24
50310;BME280;36207;51.850;21.698;2022-10-16T12:11:52;100330.93;;;19.63;59.55
50310;BME280;36207;51.850;21.698;2022-10-16T12:14:23;100329.03;;;19.72;59.19
50310;BME280;36207;51.850;21.698;2022-10-16T12:17:23;100330.33;;;19.72;58.20
50310;BME280;36207;51.850;21.698;2022-10-16T12:20:21;100330.77;;;19.59;57.80
50310;BME280;36207;51.850;21.698;2022-10-16T12:22:59;100334.13;;;19.54;58.82
50310;BME280;36207;51.850;21.698;2022-10-16T12:25:30;100336.67;;;19.57;58.64
50310;BME280;36207;51.850;21.698;2022-10-16T12:28:03;100339.30;;;19.57;58.68
50310;BME280;36207;51.850;21.698;2022-10-16T12:30:33;100337.13;;;19.60;59.08
50310;BME280;36207;51.850;21.698;2022-10-16T12:33:03;100335.30;;;19.60;58.17
50310;BME280;36207;51.850;21.698;2022-10-16T12:35:33;100329.11;;;19.59;58.40
50310;BME280;36207;51.850;21.698;2022-10-16T12:38:36;100328.02;;;19.57;58.33
50310;BME280;36207;51.850;21.698;2022-10-16T12:41:08;100324.95;;;19.52;58.28
50310;BME280;36207;51.850;21.698;2022-10-16T12:43:54;100321.36;;;19.50;58.62
50310;BME280;36207;51.850;21.698;2022-10-16T12:46:41;100318.70;;;19.52;58.23
50310;BME280;36207;51.850;21.698;2022-10-16T12:51:41;100331.80;;;19.54;58.25
50310;BME280;36207;51.850;21.698;2022-10-16T13:10:31;100334.85;;;19.53;58.29
50310;BME280;36207;51.850;21.698;2022-10-16T13:25:15;100334.60;;;19.58;58.61
50310;BME280;36207;51.850;21.698;2022-10-16T13:27:52;100332.41;;;19.71;58.46
50310;BME280;36207;51.850;21.698;2022-10-16T13:35:55;100329.62;;;19.80;57.60
50310;BME280;36207;51.850;21.698;2022-10-16T13:38:26;100330.02;;;19.76;58.18
50310;BME280;36207;51.850;21.698;2022-10-16T13:43:23;100334.71;;;19.77;57.98
50310;BME280;36207;51.850;21.698;2022-10-16T13:45:58;100334.04;;;19.75;58.39
50310;BME280;36207;51.850;21.698;2022-10-16T13:48:26;100337.39;;;19.73;58.38
50310;BME280;36207;51.850;21.698;2022-10-16T13:51:05;100339.59;;;19.72;58.10
50310;BME280;36207;51.850;21.698;2022-10-16T13:53:34;100338.00;;;19.69;58.22
50310;BME280;36207;51.850;21.698;2022-10-16T13:56:06;100339.11;;;19.66;58.47
50310;BME280;36207;51.850;21.698;2022-10-16T13:58:33;100346.91;;;19.61;58.49
50310;BME280;36207;51.850;21.698;2022-10-16T14:01:04;100357.84;;;19.52;58.50
50310;BME280;36207;51.850;21.698;2022-10-16T14:03:32;100361.63;;;19.40;58.74
50310;BME280;36207;51.850;21.698;2022-10-16T14:06:02;100367.45;;;19.35;58.82
50310;BME280;36207;51.850;21.698;2022-10-16T14:08:30;100370.96;;;19.26;58.85
50310;BME280;36207;51.850;21.698;2022-10-16T14:10:59;100372.42;;;19.16;58.95
50310;BME280;36207;51.850;21.698;2022-10-16T14:13:39;100376.89;;;19.09;59.18
50310;BME280;36207;51.850;21.698;2022-10-16T14:16:17;100382.42;;;19.02;59.35
50310;BME280;36207;51.850;21.698;2022-10-16T14:18:49;100379.64;;;18.94;59.60
50310;BME280;36207;51.850;21.698;2022-10-16T14:21:18;100380.54;;;18.87;59.70
50310;BME280;36207;51.850;21.698;2022-10-16T14:23:44;100381.27;;;18.81;59.83
50310;BME280;36207;51.850;21.698;2022-10-16T14:28:37;100383.17;;;18.71;59.90